sensor_id;sensor_type;location;lat;lon;timestamp;P1;durP1;ratioP1;P2;durP2;ratioP2
73893;SDS011;62699;50.534;12.784;2022-08-03T00:00:42;4.80;;;3.03;;
73893;SDS011;62699;50.534;12.784;2022-08-03T00:06:01;3.92;;;2.70;;
73893;SDS011;62699;50.534;12.784;2022-08-03T00:11:20;5.00;;;2.90;;
73893;SDS011;62699;50.534;12.784;2022-08-03T00:16:40;5.78;;;3.28;;
73893;SDS011;62699;50.534;12.784;2022-08-03T00:21:59;4.18;;;2.90;;
73893;SDS011;62699;50.534;12.784;2022-08-03T00:27:18;4.30;;;2.97;;
73893;SDS011;62699;50.534;12.784;2022-08-03T00:32:38;5.03;;;3.05;;
73893;SDS011;62699;50.534;12.784;2022-08-03T00:37:57;4.22;;;2.70;;
73893;SDS011;62699;50.534;12.784;2022-08-03T00:43:17;6.65;;;3.13;;
73893;SDS011;62699;50.534;12.784;2022-08-03T00:48:36;5.57;;;3.42;;
73893;SDS011;62699;50.534;12.784;2022-08-03T00:53:56;5.18;;;3.10;;
73893;SDS011;62699;50.534;12.784;2022-08-03T00:59:15;4.85;;;3.00;;
73893;SDS011;62699;50.534;12.784;2022-08-03T01:04:35;5.70;;;3.38;;
73893;SDS011;62699;50.534;12.784;2022-08-03T01:09:59;4.53;;;2.92;;
73893;SDS011;62699;50.534;12.784;2022-08-03T01:15:28;3.33;;;2.50;;
73893;SDS011;62699;50.534;12.784;2022-08-03T01:20:55;6.40;;;3.07;;
73893;SDS011;62699;50.534;12.784;2022-08-03T01:32:04;3.70;;;2.80;;
73893;SDS011;62699;50.534;12.784;2022-08-03T01:37:35;3.90;;;2.60;;
73893;SDS011;62699;50.534;12.784;2022-08-03T01:42:58;5.18;;;2.85;;
73893;SDS011;62699;50.534;12.784;2022-08-03T01:48:20;4.65;;;2.90;;
73893;SDS011;62699;50.534;12.784;2022-08-03T01:53:40;4.15;;;2.90;;
73893;SDS011;62699;50.534;12.784;2022-08-03T01:59:03;5.70;;;2.75;;
73893;SDS011;62699;50.534;12.784;2022-08-03T02:04:25;4.50;;;3.00;;
73893;SDS011;62699;50.534;12.784;2022-08-03T02:09:48;5.40;;;2.92;;
73893;SDS011;62699;50.534;12.784;2022-08-03T02:15:09;5.53;;;3.22;;
73893;SDS011;62699;50.534;12.784;2022-08-03T02:20:31;3.65;;;2.58;;
73893;SDS011;62699;50.534;12.784;2022-08-03T02:25:56;6.05;;;3.28;;
73893;SDS011;62699;50.534;12.784;2022-08-03T02:31:20;5.77;;;3.03;;
73893;SDS011;62699;50.534;12.784;2022-08-03T02:36:43;4.65;;;2.60;;
73893;SDS011;62699;50.534;12.784;2022-08-03T02:42:04;4.18;;;2.63;;
73893;SDS011;62699;50.534;12.784;2022-08-03T02:47:26;3.78;;;2.60;;
73893;SDS011;62699;50.534;12.784;2022-08-03T02:52:48;4.72;;;2.90;;
73893;SDS011;62699;50.534;12.784;2022-08-03T02:58:09;5.82;;;2.80;;
73893;SDS011;62699;50.534;12.784;2022-08-03T03:03:31;4.50;;;2.95;;
73893;SDS011;62699;50.534;12.784;2022-08-03T03:08:51;5.22;;;2.88;;
73893;SDS011;62699;50.534;12.784;2022-08-03T03:14:12;4.55;;;2.60;;
73893;SDS011;62699;50.534;12.784;2022-08-03T03:19:33;4.28;;;2.60;;
73893;SDS011;62699;50.534;12.784;2022-08-03T03:24:55;4.55;;;2.92;;
73893;SDS011;62699;50.534;12.784;2022-08-03T03:30:14;4.38;;;2.88;;
73893;SDS011;62699;50.534;12.784;2022-08-03T03:35:34;3.92;;;2.50;;
73893;SDS011;62699;50.534;12.784;2022-08-03T03:40:53;5.57;;;2.60;;
73893;SDS011;62699;50.534;12.784;2022-08-03T03:46:13;5.20;;;2.70;;
73893;SDS011;62699;50.534;12.784;2022-08-03T03:51:32;5.28;;;2.90;;
73893;SDS011;62699;50.534;12.784;2022-08-03T03:56:51;4.60;;;2.50;;
73893;SDS011;62699;50.534;12.784;2022-08-03T04:02:10;5.70;;;2.78;;
73893;SDS011;62699;50.534;12.784;2022-08-03T04:07:32;3.45;;;2.33;;
73893;SDS011;62699;50.534;12.784;2022-08-03T04:13:22;4.03;;;2.80;;
73893;SDS011;62699;50.534;12.784;2022-08-03T04:18:46;4.30;;;2.70;;
73893;SDS011;62699;50.534;12.784;2022-08-03T04:24:11;4.18;;;2.90;;
73893;SDS011;62699;50.534;12.784;2022-08-03T04:29:33;4.15;;;2.53;;
73893;SDS011;62699;50.534;12.784;2022-08-03T04:34:55;4.65;;;2.80;;
73893;SDS011;62699;50.534;12.784;2022-08-03T04:40:19;4.70;;;2.85;;
73893;SDS011;62699;50.534;12.784;2022-08-03T04:45:43;5.00;;;2.80;;
73893;SDS011;62699;50.534;12.784;2022-08-03T04:51:06;3.35;;;2.47;;
73893;SDS011;62699;50.534;12.784;2022-08-03T04:56:32;5.10;;;2.55;;
73893;SDS011;62699;50.534;12.784;2022-08-03T05:01:52;4.28;;;2.72;;
73893;SDS011;62699;50.534;12.784;2022-08-03T05:07:12;4.55;;;2.58;;
73893;SDS011;62699;50.534;12.784;2022-08-03T05:12:33;3.70;;;2.35;;
73893;SDS011;62699;50.534;12.784;2022-08-03T05:17:52;4.50;;;2.50;;
73893;SDS011;62699;50.534;12.784;2022-08-03T05:23:12;4.03;;;2.50;;
73893;SDS011;62699;50.534;12.784;2022-08-03T05:28:31;4.45;;;2.30;;
73893;SDS011;62699;50.534;12.784;2022-08-03T05:33:51;4.07;;;2.42;;
73893;SDS011;62699;50.534;12.784;2022-08-03T05:39:11;3.50;;;2.15;;
73893;SDS011;62699;50.534;12.784;2022-08-03T05:44:30;3.47;;;2.50;;
73893;SDS011;62699;50.534;12.784;2022-08-03T05:49:49;3.05;;;2.45;;
73893;SDS011;62699;50.534;12.784;2022-08-03T05:55:10;3.45;;;2.42;;
73893;SDS011;62699;50.534;12.784;2022-08-03T06:00:31;5.57;;;2.30;;
73893;SDS011;62699;50.534;12.784;2022-08-03T06:05:52;4.13;;;2.20;;
73893;SDS011;62699;50.534;12.784;2022-08-03T06:11:12;3.92;;;2.05;;
73893;SDS011;62699;50.534;12.784;2022-08-03T06:16:32;3.35;;;2.20;;
73893;SDS011;62699;50.534;12.784;2022-08-03T06:21:51;4.18;;;2.22;;
73893;SDS011;62699;50.534;12.784;2022-08-03T06:27:10;3.22;;;2.00;;
73893;SDS011;62699;50.534;12.784;2022-08-03T06:32:29;3.72;;;2.20;;
73893;SDS011;62699;50.534;12.784;2022-08-03T06:37:54;4.28;;;2.22;;
73893;SDS011;62699;50.534;12.784;2022-08-03T06:43:14;5.30;;;2.30;;
73893;SDS011;62699;50.534;12.784;2022-08-03T06:48:34;4.80;;;2.20;;
73893;SDS011;62699;50.534;12.784;2022-08-03T06:53:53;3.78;;;2.22;;
73893;SDS011;62699;50.534;12.784;2022-08-03T06:59:13;3.90;;;2.53;;
73893;SDS011;62699;50.534;12.784;2022-08-03T07:04:32;9.18;;;2.03;;
73893;SDS011;62699;50.534;12.784;2022-08-03T07:09:51;5.10;;;2.33;;
73893;SDS011;62699;50.534;12.784;2022-08-03T07:15:10;5.03;;;2.38;;
73893;SDS011;62699;50.534;12.784;2022-08-03T07:20:30;3.20;;;2.10;;
73893;SDS011;62699;50.534;12.784;2022-08-03T07:25:49;3.38;;;2.30;;
73893;SDS011;62699;50.534;12.784;2022-08-03T07:31:10;4.82;;;2.63;;
73893;SDS011;62699;50.534;12.784;2022-08-03T07:36:28;3.72;;;1.70;;
73893;SDS011;62699;50.534;12.784;2022-08-03T07:41:49;4.25;;;2.30;;
73893;SDS011;62699;50.534;12.784;2022-08-03T07:47:09;3.20;;;1.90;;
73893;SDS011;62699;50.534;12.784;2022-08-03T07:52:29;2.90;;;2.00;;
73893;SDS011;62699;50.534;12.784;2022-08-03T07:58:07;3.20;;;1.80;;
73893;SDS011;62699;50.534;12.784;2022-08-03T08:03:43;3.78;;;2.22;;
73893;SDS011;62699;50.534;12.784;2022-08-03T08:09:02;4.47;;;2.15;;
73893;SDS011;62699;50.534;12.784;2022-08-03T08:14:21;2.72;;;1.85;;
73893;SDS011;62699;50.534;12.784;2022-08-03T08:19:41;1.80;;;1.52;;
73893;SDS011;62699;50.534;12.784;2022-08-03T08:25:01;2.58;;;2.00;;
73893;SDS011;62699;50.534;12.784;2022-08-03T08:30:22;2.63;;;1.90;;
73893;SDS011;62699;50.534;12.784;2022-08-03T08:35:43;3.75;;;1.90;;
73893;SDS011;62699;50.534;12.784;2022-08-03T08:41:02;4.68;;;2.10;;
73893;SDS011;62699;50.534;12.784;2022-08-03T08:46:23;4.68;;;2.30;;
73893;SDS011;62699;50.534;12.784;2022-08-03T08:51:42;3.72;;;2.35;;
73893;SDS011;62699;50.534;12.784;2022-08-03T08:57:06;3.97;;;2.53;;
73893;SDS011;62699;50.534;12.784;2022-08-03T09:02:30;3.50;;;2.00;;
73893;SDS011;62699;50.534;12.784;2022-08-03T09:07:50;4.10;;;2.10;;
73893;SDS011;62699;50.534;12.784;2022-08-03T09:13:10;4.30;;;2.20;;
73893;SDS011;62699;50.534;12.784;2022-08-03T09:18:30;4.70;;;2.47;;
73893;SDS011;62699;50.534;12.784;2022-08-03T09:23:49;5.85;;;2.33;;
73893;SDS011;62699;50.534;12.784;2022-08-03T09:29:10;7.10;;;2.40;;
73893;SDS011;62699;50.534;12.784;2022-08-03T09:34:29;3.10;;;2.00;;
73893;SDS011;62699;50.534;12.784;2022-08-03T09:39:50;5.20;;;2.10;;
73893;SDS011;62699;50.534;12.784;2022-08-03T09:45:09;4.70;;;2.60;;
73893;SDS011;62699;50.534;12.784;2022-08-03T09:50:48;3.80;;;2.35;;
73893;SDS011;62699;50.534;12.784;2022-08-03T09:56:08;4.95;;;2.15;;
73893;SDS011;62699;50.534;12.784;2022-08-03T10:01:32;4.95;;;2.28;;
73893;SDS011;62699;50.534;12.784;2022-08-03T10:07:05;3.78;;;2.30;;
73893;SDS011;62699;50.534;12.784;2022-08-03T10:12:34;4.13;;;2.30;;
73893;SDS011;62699;50.534;12.784;2022-08-03T10:17:53;3.70;;;2.10;;
73893;SDS011;62699;50.534;12.784;2022-08-03T10:23:13;3.58;;;2.28;;
73893;SDS011;62699;50.534;12.784;2022-08-03T10:28:39;3.63;;;2.10;;
73893;SDS011;62699;50.534;12.784;2022-08-03T10:34:01;3.67;;;2.40;;
73893;SDS011;62699;50.534;12.784;2022-08-03T10:45:17;5.05;;;2.40;;
73893;SDS011;62699;50.534;12.784;2022-08-03T10:50:37;3.38;;;2.05;;
73893;SDS011;62699;50.534;12.784;2022-08-03T10:56:00;4.05;;;2.28;;
73893;SDS011;62699;50.534;12.784;2022-08-03T11:01:54;3.90;;;2.30;;
73893;SDS011;62699;50.534;12.784;2022-08-03T11:12:34;4.38;;;2.10;;
73893;SDS011;62699;50.534;12.784;2022-08-03T11:18:08;4.10;;;2.38;;
73893;SDS011;62699;50.534;12.784;2022-08-03T11:29:29;3.15;;;2.17;;
73893;SDS011;62699;50.534;12.784;2022-08-03T11:46:23;2.60;;;2.00;;
73893;SDS011;62699;50.534;12.784;2022-08-03T11:51:44;3.63;;;2.53;;
73893;SDS011;62699;50.534;12.784;2022-08-03T11:57:02;3.30;;;2.28;;
73893;SDS011;62699;50.534;12.784;2022-08-03T12:02:22;4.15;;;1.90;;
73893;SDS011;62699;50.534;12.784;2022-08-03T12:07:44;4.80;;;2.35;;
73893;SDS011;62699;50.534;12.784;2022-08-03T12:13:04;3.47;;;2.28;;
73893;SDS011;62699;50.534;12.784;2022-08-03T12:18:25;4.15;;;2.40;;
73893;SDS011;62699;50.534;12.784;2022-08-03T12:23:45;4.68;;;2.30;;
73893;SDS011;62699;50.534;12.784;2022-08-03T12:29:04;4.90;;;2.05;;
73893;SDS011;62699;50.534;12.784;2022-08-03T12:34:24;5.82;;;2.15;;
73893;SDS011;62699;50.534;12.784;2022-08-03T12:40:03;2.97;;;1.90;;
73893;SDS011;62699;50.534;12.784;2022-08-03T12:45:26;3.53;;;2.10;;
73893;SDS011;62699;50.534;12.784;2022-08-03T12:50:49;4.78;;;1.90;;
73893;SDS011;62699;50.534;12.784;2022-08-03T12:56:09;3.35;;;1.95;;
73893;SDS011;62699;50.534;12.784;2022-08-03T13:01:34;3.15;;;2.00;;
73893;SDS011;62699;50.534;12.784;2022-08-03T13:07:00;3.13;;;1.80;;
73893;SDS011;62699;50.534;12.784;2022-08-03T13:12:25;3.53;;;1.80;;
73893;SDS011;62699;50.534;12.784;2022-08-03T13:17:47;4.03;;;1.63;;
73893;SDS011;62699;50.534;12.784;2022-08-03T13:23:06;3.55;;;2.10;;
73893;SDS011;62699;50.534;12.784;2022-08-03T13:28:25;2.50;;;1.70;;
73893;SDS011;62699;50.534;12.784;2022-08-03T13:33:44;3.03;;;1.88;;
73893;SDS011;62699;50.534;12.784;2022-08-03T13:39:04;2.80;;;1.67;;
73893;SDS011;62699;50.534;12.784;2022-08-03T13:44:23;4.75;;;1.90;;
73893;SDS011;62699;50.534;12.784;2022-08-03T13:49:43;2.53;;;1.70;;
73893;SDS011;62699;50.534;12.784;2022-08-03T13:55:03;2.75;;;1.75;;
73893;SDS011;62699;50.534;12.784;2022-08-03T14:00:24;2.50;;;1.60;;
73893;SDS011;62699;50.534;12.784;2022-08-03T14:05:50;2.67;;;1.70;;
73893;SDS011;62699;50.534;12.784;2022-08-03T14:11:09;3.20;;;1.60;;
73893;SDS011;62699;50.534;12.784;2022-08-03T14:16:30;2.08;;;1.35;;
73893;SDS011;62699;50.534;12.784;2022-08-03T14:21:53;2.05;;;1.50;;
73893;SDS011;62699;50.534;12.784;2022-08-03T14:27:12;3.60;;;1.80;;
73893;SDS011;62699;50.534;12.784;2022-08-03T14:32:32;3.17;;;1.63;;
73893;SDS011;62699;50.534;12.784;2022-08-03T14:37:51;2.55;;;1.80;;
73893;SDS011;62699;50.534;12.784;2022-08-03T14:43:11;2.20;;;1.50;;
73893;SDS011;62699;50.534;12.784;2022-08-03T14:48:31;1.80;;;1.58;;
73893;SDS011;62699;50.534;12.784;2022-08-03T14:53:51;3.35;;;1.63;;
73893;SDS011;62699;50.534;12.784;2022-08-03T14:59:10;2.22;;;1.58;;
73893;SDS011;62699;50.534;12.784;2022-08-03T15:04:30;2.38;;;1.40;;
73893;SDS011;62699;50.534;12.784;2022-08-03T15:09:49;2.47;;;1.70;;
73893;SDS011;62699;50.534;12.784;2022-08-03T15:15:09;3.85;;;1.48;;
73893;SDS011;62699;50.534;12.784;2022-08-03T15:20:44;2.42;;;1.58;;
73893;SDS011;62699;50.534;12.784;2022-08-03T15:26:04;4.53;;;1.58;;
73893;SDS011;62699;50.534;12.784;2022-08-03T15:31:23;2.08;;;1.60;;
73893;SDS011;62699;50.534;12.784;2022-08-03T15:36:43;1.90;;;1.50;;
73893;SDS011;62699;50.534;12.784;2022-08-03T15:42:03;1.77;;;1.45;;
73893;SDS011;62699;50.534;12.784;2022-08-03T15:47:25;1.77;;;1.40;;
73893;SDS011;62699;50.534;12.784;2022-08-03T15:52:44;2.80;;;1.35;;
73893;SDS011;62699;50.534;12.784;2022-08-03T15:58:04;2.03;;;1.48;;
73893;SDS011;62699;50.534;12.784;2022-08-03T16:03:24;2.90;;;1.60;;
73893;SDS011;62699;50.534;12.784;2022-08-03T16:08:45;2.13;;;1.45;;
73893;SDS011;62699;50.534;12.784;2022-08-03T16:14:05;2.53;;;1.52;;
73893;SDS011;62699;50.534;12.784;2022-08-03T16:19:24;1.60;;;1.27;;
73893;SDS011;62699;50.534;12.784;2022-08-03T16:24:43;1.95;;;1.50;;
73893;SDS011;62699;50.534;12.784;2022-08-03T16:30:04;2.25;;;1.60;;
73893;SDS011;62699;50.534;12.784;2022-08-03T16:35:24;2.95;;;1.63;;
73893;SDS011;62699;50.534;12.784;2022-08-03T16:40:44;2.15;;;1.50;;
73893;SDS011;62699;50.534;12.784;2022-08-03T16:46:04;2.00;;;1.58;;
73893;SDS011;62699;50.534;12.784;2022-08-03T16:51:24;1.83;;;1.50;;
73893;SDS011;62699;50.534;12.784;2022-08-03T16:56:43;2.20;;;1.60;;
73893;SDS011;62699;50.534;12.784;2022-08-03T17:02:03;2.20;;;1.60;;
73893;SDS011;62699;50.534;12.784;2022-08-03T17:07:23;1.95;;;1.70;;
73893;SDS011;62699;50.534;12.784;2022-08-03T17:12:42;2.15;;;1.23;;
73893;SDS011;62699;50.534;12.784;2022-08-03T17:18:03;1.70;;;1.45;;
73893;SDS011;62699;50.534;12.784;2022-08-03T17:29:03;2.13;;;1.53;;
73893;SDS011;62699;50.534;12.784;2022-08-03T17:34:23;3.17;;;1.60;;
73893;SDS011;62699;50.534;12.784;2022-08-03T17:39:42;2.97;;;1.80;;
73893;SDS011;62699;50.534;12.784;2022-08-03T17:45:02;2.35;;;1.73;;
73893;SDS011;62699;50.534;12.784;2022-08-03T17:50:21;2.75;;;1.70;;
73893;SDS011;62699;50.534;12.784;2022-08-03T17:55:43;2.92;;;1.83;;
73893;SDS011;62699;50.534;12.784;2022-08-03T18:01:07;2.92;;;1.83;;
73893;SDS011;62699;50.534;12.784;2022-08-03T18:06:50;3.50;;;1.92;;
73893;SDS011;62699;50.534;12.784;2022-08-03T18:12:11;2.45;;;1.70;;
73893;SDS011;62699;50.534;12.784;2022-08-03T18:17:34;3.75;;;2.03;;
73893;SDS011;62699;50.534;12.784;2022-08-03T18:22:56;4.72;;;1.90;;
73893;SDS011;62699;50.534;12.784;2022-08-03T18:28:17;3.53;;;2.00;;
73893;SDS011;62699;50.534;12.784;2022-08-03T18:33:38;3.63;;;2.17;;
73893;SDS011;62699;50.534;12.784;2022-08-03T18:38:59;3.10;;;1.80;;
73893;SDS011;62699;50.534;12.784;2022-08-03T18:44:18;3.35;;;2.10;;
73893;SDS011;62699;50.534;12.784;2022-08-03T18:55:25;7.28;;;2.10;;
73893;SDS011;62699;50.534;12.784;2022-08-03T19:00:50;4.55;;;2.40;;
73893;SDS011;62699;50.534;12.784;2022-08-03T19:06:20;5.10;;;2.10;;
73893;SDS011;62699;50.534;12.784;2022-08-03T19:11:45;4.03;;;2.13;;
73893;SDS011;62699;50.534;12.784;2022-08-03T19:17:10;4.90;;;2.40;;
73893;SDS011;62699;50.534;12.784;2022-08-03T19:22:31;7.55;;;2.65;;
73893;SDS011;62699;50.534;12.784;2022-08-03T19:27:51;4.90;;;3.00;;
73893;SDS011;62699;50.534;12.784;2022-08-03T19:33:11;6.93;;;2.90;;
73893;SDS011;62699;50.534;12.784;2022-08-03T19:38:31;6.75;;;2.90;;
73893;SDS011;62699;50.534;12.784;2022-08-03T19:43:53;5.22;;;2.35;;
73893;SDS011;62699;50.534;12.784;2022-08-03T19:49:15;6.25;;;2.92;;
73893;SDS011;62699;50.534;12.784;2022-08-03T19:54:41;5.22;;;2.60;;
73893;SDS011;62699;50.534;12.784;2022-08-03T20:00:04;3.30;;;2.20;;
73893;SDS011;62699;50.534;12.784;2022-08-03T20:05:26;4.30;;;2.20;;
73893;SDS011;62699;50.534;12.784;2022-08-03T20:10:46;4.45;;;2.35;;
73893;SDS011;62699;50.534;12.784;2022-08-03T20:16:06;3.92;;;2.28;;
73893;SDS011;62699;50.534;12.784;2022-08-03T20:21:26;4.03;;;2.20;;
73893;SDS011;62699;50.534;12.784;2022-08-03T20:26:51;3.85;;;2.33;;
73893;SDS011;62699;50.534;12.784;2022-08-03T20:32:12;5.28;;;2.20;;
73893;SDS011;62699;50.534;12.784;2022-08-03T20:37:31;3.53;;;2.10;;
73893;SDS011;62699;50.534;12.784;2022-08-03T20:42:50;4.95;;;2.30;;
73893;SDS011;62699;50.534;12.784;2022-08-03T20:48:16;3.78;;;2.10;;
73893;SDS011;62699;50.534;12.784;2022-08-03T20:53:39;4.82;;;2.50;;
73893;SDS011;62699;50.534;12.784;2022-08-03T20:59:03;3.80;;;2.28;;
73893;SDS011;62699;50.534;12.784;2022-08-03T21:04:23;5.40;;;2.30;;
73893;SDS011;62699;50.534;12.784;2022-08-03T21:09:48;3.83;;;2.30;;
73893;SDS011;62699;50.534;12.784;2022-08-03T21:15:10;4.43;;;2.33;;
73893;SDS011;62699;50.534;12.784;2022-08-03T21:20:33;4.65;;;2.70;;
73893;SDS011;62699;50.534;12.784;2022-08-03T21:25:53;4.88;;;2.70;;
73893;SDS011;62699;50.534;12.784;2022-08-03T21:31:25;6.45;;;2.88;;
73893;SDS011;62699;50.534;12.784;2022-08-03T21:36:45;4.95;;;2.40;;
73893;SDS011;62699;50.534;12.784;2022-08-03T21:42:11;6.50;;;3.25;;
73893;SDS011;62699;50.534;12.784;2022-08-03T21:47:31;4.82;;;2.50;;
73893;SDS011;62699;50.534;12.784;2022-08-03T21:52:56;4.65;;;2.70;;
73893;SDS011;62699;50.534;12.784;2022-08-03T22:04:22;6.10;;;3.15;;
73893;SDS011;62699;50.534;12.784;2022-08-03T22:09:44;4.72;;;2.75;;
73893;SDS011;62699;50.534;12.784;2022-08-03T22:15:06;6.25;;;3.13;;
73893;SDS011;62699;50.534;12.784;2022-08-03T22:20:29;5.35;;;2.60;;
73893;SDS011;62699;50.534;12.784;2022-08-03T22:25:50;3.97;;;2.47;;
73893;SDS011;62699;50.534;12.784;2022-08-03T22:31:10;3.72;;;2.35;;
73893;SDS011;62699;50.534;12.784;2022-08-03T22:36:31;5.93;;;2.58;;
73893;SDS011;62699;50.534;12.784;2022-08-03T22:41:50;4.93;;;2.55;;
73893;SDS011;62699;50.534;12.784;2022-08-03T22:47:09;5.35;;;2.72;;
73893;SDS011;62699;50.534;12.784;2022-08-03T22:52:29;5.25;;;2.70;;
73893;SDS011;62699;50.534;12.784;2022-08-03T22:57:50;3.38;;;2.40;;
73893;SDS011;62699;50.534;12.784;2022-08-03T23:03:15;4.10;;;2.60;;
73893;SDS011;62699;50.534;12.784;2022-08-03T23:08:40;4.85;;;2.45;;
73893;SDS011;62699;50.534;12.784;2022-08-03T23:14:05;5.63;;;2.70;;
73893;SDS011;62699;50.534;12.784;2022-08-03T23:19:30;3.45;;;2.10;;
73893;SDS011;62699;50.534;12.784;2022-08-03T23:24:51;3.85;;;2.30;;
73893;SDS011;62699;50.534;12.784;2022-08-03T23:30:11;3.92;;;2.30;;
73893;SDS011;62699;50.534;12.784;2022-08-03T23:35:31;4.55;;;2.10;;
73893;SDS011;62699;50.534;12.784;2022-08-03T23:41:09;4.88;;;2.15;;
73893;SDS011;62699;50.534;12.784;2022-08-03T23:46:28;4.15;;;2.42;;
